< < Back
Terminal Aerodrome Forecast


Current Version              Previous Versions:   1  2  3  4  5  6  7  8  9  

Terminal Aerodrome Forecast

664
FTUS42 KFFC 031230 AAB
TAFAHN
TAF AMD
KAHN 031230Z 0313/0412 30008KT 4SM -TSRA BR SCT014 BKN025CB
      TEMPO 0313/0315 VRB10G20KT 1SM +TSRA BR OVC020CB
     FM031500 25012KT 5SM -SHRA BKN025 BKN050
      TEMPO 0315/0319 VRB15G25KT 2SM TSRA BR BKN015CB
     FM032100 27012KT 5SM TSRA BKN020CB
     FM040100 27008KT P6SM -SHRA BKN030 BKN080
     FM040600 26009KT P6SM OVC020=

Latest METAR

317
SAUS70 KWBC 032000
MTRAHN
METAR KAHN 031951Z 24006KT 10SM SCT037 SCT047 BKN055 26/21 A3000 RMK AO2
SLP150 T02610206


USA.gov is the U.S. government's official web portal to all federal, state and local government web resources and services.